sensor_id;sensor_type;location;lat;lon;timestamp;temperature;humidity
75838;SHT30;64480;52.040;113.502;2024-03-08T00:02:41;-9.72;47.05
75838;SHT30;64480;52.040;113.502;2024-03-08T00:05:46;-9.47;46.16
75838;SHT30;64480;52.040;113.502;2024-03-08T00:08:50;-9.17;45.11
75838;SHT30;64480;52.040;113.502;2024-03-08T00:11:54;-9.12;44.35
75838;SHT30;64480;52.040;113.502;2024-03-08T00:15:02;-8.78;44.18
75838;SHT30;64480;52.040;113.502;2024-03-08T00:18:06;-8.45;43.31
75838;SHT30;64480;52.040;113.502;2024-03-08T00:21:11;-8.13;42.66
75838;SHT30;64480;52.040;113.502;2024-03-08T00:24:15;-7.81;42.46
75838;SHT30;64480;52.040;113.502;2024-03-08T00:27:19;-7.57;41.68
75838;SHT30;64480;52.040;113.502;2024-03-08T00:30:23;-7.20;41.02
75838;SHT30;64480;52.040;113.502;2024-03-08T00:33:27;-7.11;40.52
75838;SHT30;64480;52.040;113.502;2024-03-08T00:36:32;-7.47;40.22
75838;SHT30;64480;52.040;113.502;2024-03-08T00:39:36;-8.14;42.05
75838;SHT30;64480;52.040;113.502;2024-03-08T00:42:40;-8.91;42.93
75838;SHT30;64480;52.040;113.502;2024-03-08T00:45:44;-9.28;44.44
75838;SHT30;64480;52.040;113.502;2024-03-08T00:48:47;-9.62;46.09
75838;SHT30;64480;52.040;113.502;2024-03-08T00:51:50;-9.79;46.79
75838;SHT30;64480;52.040;113.502;2024-03-08T00:54:54;-10.00;47.48
75838;SHT30;64480;52.040;113.502;2024-03-08T00:57:58;-10.17;47.85
75838;SHT30;64480;52.040;113.502;2024-03-08T01:01:06;-10.34;48.77
75838;SHT30;64480;52.040;113.502;2024-03-08T01:04:10;-10.46;49.38
75838;SHT30;64480;52.040;113.502;2024-03-08T01:07:14;-10.37;49.89
75838;SHT30;64480;52.040;113.502;2024-03-08T01:10:17;-10.41;49.59
75838;SHT30;64480;52.040;113.502;2024-03-08T01:13:21;-10.13;49.61
75838;SHT30;64480;52.040;113.502;2024-03-08T01:16:24;-10.02;49.57
75838;SHT30;64480;52.040;113.502;2024-03-08T01:19:28;-9.85;49.82
75838;SHT30;64480;52.040;113.502;2024-03-08T01:22:31;-9.80;50.45
75838;SHT30;64480;52.040;113.502;2024-03-08T01:25:35;-9.72;50.21
75838;SHT30;64480;52.040;113.502;2024-03-08T01:28:38;-9.55;50.14
75838;SHT30;64480;52.040;113.502;2024-03-08T01:31:41;-9.62;49.69
75838;SHT30;64480;52.040;113.502;2024-03-08T01:34:45;-9.55;49.99
75838;SHT30;64480;52.040;113.502;2024-03-08T01:37:48;-9.50;50.02
75838;SHT30;64480;52.040;113.502;2024-03-08T01:40:52;-9.47;50.11
75838;SHT30;64480;52.040;113.502;2024-03-08T01:43:55;-9.48;50.04
75838;SHT30;64480;52.040;113.502;2024-03-08T01:46:59;-9.40;50.64
75838;SHT30;64480;52.040;113.502;2024-03-08T01:50:05;-9.33;50.97
75838;SHT30;64480;52.040;113.502;2024-03-08T01:53:12;-9.34;51.35
75838;SHT30;64480;52.040;113.502;2024-03-08T01:56:17;-9.37;51.63
75838;SHT30;64480;52.040;113.502;2024-03-08T01:59:21;-9.34;51.82
75838;SHT30;64480;52.040;113.502;2024-03-08T02:02:25;-9.20;52.23
75838;SHT30;64480;52.040;113.502;2024-03-08T02:05:30;-9.05;52.67
75838;SHT30;64480;52.040;113.502;2024-03-08T02:08:33;-8.85;53.02
75838;SHT30;64480;52.040;113.502;2024-03-08T02:11:37;-8.71;53.14
75838;SHT30;64480;52.040;113.502;2024-03-08T02:14:41;-8.64;53.42
75838;SHT30;64480;52.040;113.502;2024-03-08T02:17:45;-8.58;54.11
75838;SHT30;64480;52.040;113.502;2024-03-08T02:20:53;-8.38;53.83
75838;SHT30;64480;52.040;113.502;2024-03-08T02:23:56;-8.23;53.82
75838;SHT30;64480;52.040;113.502;2024-03-08T02:27:00;-8.10;53.93
75838;SHT30;64480;52.040;113.502;2024-03-08T02:30:07;-8.01;54.53
75838;SHT30;64480;52.040;113.502;2024-03-08T02:33:13;-7.91;54.63
75838;SHT30;64480;52.040;113.502;2024-03-08T02:36:19;-7.88;54.74
75838;SHT30;64480;52.040;113.502;2024-03-08T02:39:23;-7.94;55.30
75838;SHT30;64480;52.040;113.502;2024-03-08T02:42:27;-7.82;55.81
75838;SHT30;64480;52.040;113.502;2024-03-08T02:45:30;-7.74;55.55
75838;SHT30;64480;52.040;113.502;2024-03-08T02:48:36;-7.55;55.21
75838;SHT30;64480;52.040;113.502;2024-03-08T02:51:40;-7.47;55.06
75838;SHT30;64480;52.040;113.502;2024-03-08T02:54:43;-7.41;54.66
75838;SHT30;64480;52.040;113.502;2024-03-08T02:57:47;-7.29;54.75
75838;SHT30;64480;52.040;113.502;2024-03-08T03:00:51;-7.19;54.44
75838;SHT30;64480;52.040;113.502;2024-03-08T03:03:54;-7.15;54.40
75838;SHT30;64480;52.040;113.502;2024-03-08T03:06:57;-7.03;54.34
75838;SHT30;64480;52.040;113.502;2024-03-08T03:10:03;-6.89;53.83
75838;SHT30;64480;52.040;113.502;2024-03-08T03:13:06;-6.78;53.67
75838;SHT30;64480;52.040;113.502;2024-03-08T03:16:09;-6.67;53.67
75838;SHT30;64480;52.040;113.502;2024-03-08T03:19:13;-6.44;53.96
75838;SHT30;64480;52.040;113.502;2024-03-08T03:22:19;-6.23;53.52
75838;SHT30;64480;52.040;113.502;2024-03-08T03:25:22;-6.09;52.85
75838;SHT30;64480;52.040;113.502;2024-03-08T03:28:31;-5.97;52.96
75838;SHT30;64480;52.040;113.502;2024-03-08T03:31:35;-5.85;52.69
75838;SHT30;64480;52.040;113.502;2024-03-08T03:34:40;-5.80;52.44
75838;SHT30;64480;52.040;113.502;2024-03-08T03:37:44;-5.69;52.79
75838;SHT30;64480;52.040;113.502;2024-03-08T03:40:54;-5.57;52.18
75838;SHT30;64480;52.040;113.502;2024-03-08T03:44:03;-5.28;52.45
75838;SHT30;64480;52.040;113.502;2024-03-08T03:47:07;-5.16;51.92
75838;SHT30;64480;52.040;113.502;2024-03-08T03:50:11;-4.92;51.71
75838;SHT30;64480;52.040;113.502;2024-03-08T03:53:15;-4.76;51.23
75838;SHT30;64480;52.040;113.502;2024-03-08T03:56:18;-4.70;50.68
75838;SHT30;64480;52.040;113.502;2024-03-08T03:59:21;-4.64;50.89
75838;SHT30;64480;52.040;113.502;2024-03-08T04:02:25;-4.49;50.35
75838;SHT30;64480;52.040;113.502;2024-03-08T04:05:29;-4.45;50.54
75838;SHT30;64480;52.040;113.502;2024-03-08T04:08:34;-4.42;50.25
75838;SHT30;64480;52.040;113.502;2024-03-08T04:11:39;-4.32;50.09
75838;SHT30;64480;52.040;113.502;2024-03-08T04:14:43;-4.25;49.98
75838;SHT30;64480;52.040;113.502;2024-03-08T04:17:46;-4.08;49.87
75838;SHT30;64480;52.040;113.502;2024-03-08T04:20:49;-3.94;49.57
75838;SHT30;64480;52.040;113.502;2024-03-08T04:23:52;-3.86;49.15
75838;SHT30;64480;52.040;113.502;2024-03-08T04:26:55;-3.77;49.00
75838;SHT30;64480;52.040;113.502;2024-03-08T04:30:01;-3.71;48.79
75838;SHT30;64480;52.040;113.502;2024-03-08T04:33:11;-3.60;48.95
75838;SHT30;64480;52.040;113.502;2024-03-08T04:36:14;-3.55;48.86
75838;SHT30;64480;52.040;113.502;2024-03-08T04:39:17;-3.42;48.64
75838;SHT30;64480;52.040;113.502;2024-03-08T04:42:21;-3.38;47.88
75838;SHT30;64480;52.040;113.502;2024-03-08T04:45:25;-3.34;47.78
75838;SHT30;64480;52.040;113.502;2024-03-08T04:48:32;-3.31;47.46
75838;SHT30;64480;52.040;113.502;2024-03-08T04:51:36;-3.18;47.82
75838;SHT30;64480;52.040;113.502;2024-03-08T04:54:41;-2.97;47.51
75838;SHT30;64480;52.040;113.502;2024-03-08T04:57:44;-2.73;46.95
75838;SHT30;64480;52.040;113.502;2024-03-08T05:00:49;-2.55;46.50
75838;SHT30;64480;52.040;113.502;2024-03-08T05:03:53;-2.42;45.52
75838;SHT30;64480;52.040;113.502;2024-03-08T05:07:04;-2.30;45.34
75838;SHT30;64480;52.040;113.502;2024-03-08T05:10:08;-2.04;44.93
75838;SHT30;64480;52.040;113.502;2024-03-08T05:13:14;-1.98;45.03
75838;SHT30;64480;52.040;113.502;2024-03-08T05:16:17;-1.90;44.99
75838;SHT30;64480;52.040;113.502;2024-03-08T05:19:21;-1.83;43.93
75838;SHT30;64480;52.040;113.502;2024-03-08T05:22:24;-1.65;43.78
75838;SHT30;64480;52.040;113.502;2024-03-08T05:25:27;-1.47;43.53
75838;SHT30;64480;52.040;113.502;2024-03-08T05:28:30;-1.37;43.08
75838;SHT30;64480;52.040;113.502;2024-03-08T05:31:51;-1.18;43.33
75838;SHT30;64480;52.040;113.502;2024-03-08T05:34:57;-1.08;43.00
75838;SHT30;64480;52.040;113.502;2024-03-08T05:38:00;-1.00;42.52
75838;SHT30;64480;52.040;113.502;2024-03-08T05:41:07;-0.83;41.85
75838;SHT30;64480;52.040;113.502;2024-03-08T05:44:12;-0.82;41.64
75838;SHT30;64480;52.040;113.502;2024-03-08T05:47:15;-0.76;41.99
75838;SHT30;64480;52.040;113.502;2024-03-08T05:50:18;-0.45;42.08
75838;SHT30;64480;52.040;113.502;2024-03-08T05:53:22;-0.30;41.52
75838;SHT30;64480;52.040;113.502;2024-03-08T05:56:26;-0.14;41.33
75838;SHT30;64480;52.040;113.502;2024-03-08T05:59:31;-0.09;40.10
75838;SHT30;64480;52.040;113.502;2024-03-08T06:02:38;-0.18;40.29
75838;SHT30;64480;52.040;113.502;2024-03-08T06:05:44;-0.06;40.61
75838;SHT30;64480;52.040;113.502;2024-03-08T06:08:48;-0.03;40.48
75838;SHT30;64480;52.040;113.502;2024-03-08T06:11:54;0.07;40.55
75838;SHT30;64480;52.040;113.502;2024-03-08T06:14:58;0.03;39.76
75838;SHT30;64480;52.040;113.502;2024-03-08T06:18:05;0.06;40.23
75838;SHT30;64480;52.040;113.502;2024-03-08T06:21:09;0.18;39.36
75838;SHT30;64480;52.040;113.502;2024-03-08T06:24:15;0.22;39.17
75838;SHT30;64480;52.040;113.502;2024-03-08T06:27:19;0.28;38.97
75838;SHT30;64480;52.040;113.502;2024-03-08T06:30:22;0.37;39.56
75838;SHT30;64480;52.040;113.502;2024-03-08T06:33:26;0.45;39.13
75838;SHT30;64480;52.040;113.502;2024-03-08T06:36:30;0.56;39.91
75838;SHT30;64480;52.040;113.502;2024-03-08T06:39:34;0.63;39.83
75838;SHT30;64480;52.040;113.502;2024-03-08T06:42:38;0.66;38.83
75838;SHT30;64480;52.040;113.502;2024-03-08T06:45:42;0.66;38.97
75838;SHT30;64480;52.040;113.502;2024-03-08T06:48:51;0.70;39.18
75838;SHT30;64480;52.040;113.502;2024-03-08T06:51:56;0.66;38.69
75838;SHT30;64480;52.040;113.502;2024-03-08T06:55:00;0.75;38.11
75838;SHT30;64480;52.040;113.502;2024-03-08T06:58:06;0.72;38.03
75838;SHT30;64480;52.040;113.502;2024-03-08T07:01:10;0.70;37.34
75838;SHT30;64480;52.040;113.502;2024-03-08T07:04:17;0.73;37.35
75838;SHT30;64480;52.040;113.502;2024-03-08T07:07:22;0.87;37.64
75838;SHT30;64480;52.040;113.502;2024-03-08T07:10:25;0.91;38.40
75838;SHT30;64480;52.040;113.502;2024-03-08T07:13:28;0.94;38.36
75838;SHT30;64480;52.040;113.502;2024-03-08T07:16:33;0.97;38.34
75838;SHT30;64480;52.040;113.502;2024-03-08T07:19:36;1.04;38.40
75838;SHT30;64480;52.040;113.502;2024-03-08T07:22:41;1.07;37.85
75838;SHT30;64480;52.040;113.502;2024-03-08T07:25:49;1.28;37.66
75838;SHT30;64480;52.040;113.502;2024-03-08T07:28:53;1.31;37.26
75838;SHT30;64480;52.040;113.502;2024-03-08T07:31:57;1.17;36.40
75838;SHT30;64480;52.040;113.502;2024-03-08T07:35:15;1.13;35.85
75838;SHT30;64480;52.040;113.502;2024-03-08T07:38:24;1.11;35.97
75838;SHT30;64480;52.040;113.502;2024-03-08T07:41:28;1.13;37.35
75838;SHT30;64480;52.040;113.502;2024-03-08T07:44:37;1.14;36.86
75838;SHT30;64480;52.040;113.502;2024-03-08T07:47:40;1.20;37.16
75838;SHT30;64480;52.040;113.502;2024-03-08T07:50:44;1.23;36.81
75838;SHT30;64480;52.040;113.502;2024-03-08T07:53:47;1.23;36.78
75838;SHT30;64480;52.040;113.502;2024-03-08T07:56:52;1.21;36.54
75838;SHT30;64480;52.040;113.502;2024-03-08T07:59:56;1.21;36.66
75838;SHT30;64480;52.040;113.502;2024-03-08T08:03:00;1.21;36.78
75838;SHT30;64480;52.040;113.502;2024-03-08T08:06:07;1.17;36.98
75838;SHT30;64480;52.040;113.502;2024-03-08T08:09:10;1.21;37.37
75838;SHT30;64480;52.040;113.502;2024-03-08T08:12:31;1.28;37.61
75838;SHT30;64480;52.040;113.502;2024-03-08T08:15:37;1.34;38.34
75838;SHT30;64480;52.040;113.502;2024-03-08T08:18:41;1.38;38.26
75838;SHT30;64480;52.040;113.502;2024-03-08T08:21:44;1.36;37.38
75838;SHT30;64480;52.040;113.502;2024-03-08T08:24:47;1.34;37.15
75838;SHT30;64480;52.040;113.502;2024-03-08T08:27:50;1.30;37.32
75838;SHT30;64480;52.040;113.502;2024-03-08T08:30:56;1.31;37.52
75838;SHT30;64480;52.040;113.502;2024-03-08T08:33:59;1.31;37.59
75838;SHT30;64480;52.040;113.502;2024-03-08T08:37:10;1.27;37.62
75838;SHT30;64480;52.040;113.502;2024-03-08T08:40:15;1.25;37.53
75838;SHT30;64480;52.040;113.502;2024-03-08T08:43:20;1.28;37.59
75838;SHT30;64480;52.040;113.502;2024-03-08T08:46:26;1.25;37.78
75838;SHT30;64480;52.040;113.502;2024-03-08T08:49:29;1.21;37.86
75838;SHT30;64480;52.040;113.502;2024-03-08T08:52:33;1.20;37.97
75838;SHT30;64480;52.040;113.502;2024-03-08T08:55:40;1.21;38.34
75838;SHT30;64480;52.040;113.502;2024-03-08T08:58:44;1.21;38.18
75838;SHT30;64480;52.040;113.502;2024-03-08T09:01:47;1.17;38.32
75838;SHT30;64480;52.040;113.502;2024-03-08T09:04:50;1.13;38.00
75838;SHT30;64480;52.040;113.502;2024-03-08T09:07:55;1.11;38.20
75838;SHT30;64480;52.040;113.502;2024-03-08T09:10:59;1.05;38.26
75838;SHT30;64480;52.040;113.502;2024-03-08T09:14:03;1.07;38.37
75838;SHT30;64480;52.040;113.502;2024-03-08T09:17:11;1.03;38.49
75838;SHT30;64480;52.040;113.502;2024-03-08T09:20:15;0.97;38.89
75838;SHT30;64480;52.040;113.502;2024-03-08T09:23:20;0.89;39.05
75838;SHT30;64480;52.040;113.502;2024-03-08T09:26:24;0.81;39.79
75838;SHT30;64480;52.040;113.502;2024-03-08T09:29:31;0.72;40.60
75838;SHT30;64480;52.040;113.502;2024-03-08T09:32:35;0.59;41.21
75838;SHT30;64480;52.040;113.502;2024-03-08T09:35:40;0.51;41.11
75838;SHT30;64480;52.040;113.502;2024-03-08T09:38:44;0.45;41.06
75838;SHT30;64480;52.040;113.502;2024-03-08T09:41:51;0.31;41.08
75838;SHT30;64480;52.040;113.502;2024-03-08T09:44:55;0.25;41.35
75838;SHT30;64480;52.040;113.502;2024-03-08T09:47:59;0.15;42.03
75838;SHT30;64480;52.040;113.502;2024-03-08T09:51:04;0.10;42.87
75838;SHT30;64480;52.040;113.502;2024-03-08T09:54:12;0.00;43.28
75838;SHT30;64480;52.040;113.502;2024-03-08T09:57:25;-0.10;43.53
75838;SHT30;64480;52.040;113.502;2024-03-08T10:00:33;-0.17;44.23
75838;SHT30;64480;52.040;113.502;2024-03-08T10:03:36;-0.25;43.55
75838;SHT30;64480;52.040;113.502;2024-03-08T10:06:42;-0.32;43.22
75838;SHT30;64480;52.040;113.502;2024-03-08T10:10:00;-0.39;43.11
75838;SHT30;64480;52.040;113.502;2024-03-08T10:13:10;-0.48;43.33
75838;SHT30;64480;52.040;113.502;2024-03-08T10:16:19;-0.59;44.02
75838;SHT30;64480;52.040;113.502;2024-03-08T10:19:24;-0.77;45.08
75838;SHT30;64480;52.040;113.502;2024-03-08T10:22:29;-0.92;45.36
75838;SHT30;64480;52.040;113.502;2024-03-08T10:25:38;-1.03;46.78
75838;SHT30;64480;52.040;113.502;2024-03-08T10:28:45;-1.11;47.85
75838;SHT30;64480;52.040;113.502;2024-03-08T10:31:53;-1.24;48.75
75838;SHT30;64480;52.040;113.502;2024-03-08T10:35:19;-1.37;48.82
75838;SHT30;64480;52.040;113.502;2024-03-08T10:38:26;-1.51;49.10
75838;SHT30;64480;52.040;113.502;2024-03-08T10:41:37;-1.59;49.32
75838;SHT30;64480;52.040;113.502;2024-03-08T10:45:50;-1.72;49.48
75838;SHT30;64480;52.040;113.502;2024-03-08T10:48:31;-1.82;49.91
75838;SHT30;64480;52.040;113.502;2024-03-08T10:51:42;-1.85;50.02
75838;SHT30;64480;52.040;113.502;2024-03-08T10:54:48;-1.96;49.94
75838;SHT30;64480;52.040;113.502;2024-03-08T10:57:56;-2.01;50.14
75838;SHT30;64480;52.040;113.502;2024-03-08T11:01:03;-2.08;50.70
75838;SHT30;64480;52.040;113.502;2024-03-08T11:04:14;-2.18;50.91
75838;SHT30;64480;52.040;113.502;2024-03-08T11:07:25;-2.21;51.53
75838;SHT30;64480;52.040;113.502;2024-03-08T11:10:31;-2.27;51.89
75838;SHT30;64480;52.040;113.502;2024-03-08T11:13:40;-2.32;52.33
75838;SHT30;64480;52.040;113.502;2024-03-08T11:16:44;-2.37;52.34
75838;SHT30;64480;52.040;113.502;2024-03-08T11:19:55;-2.46;52.52
75838;SHT30;64480;52.040;113.502;2024-03-08T11:23:04;-2.51;52.22
75838;SHT30;64480;52.040;113.502;2024-03-08T11:26:31;-2.48;51.89
75838;SHT30;64480;52.040;113.502;2024-03-08T11:29:37;-2.53;52.36
75838;SHT30;64480;52.040;113.502;2024-03-08T11:32:45;-2.59;52.44
75838;SHT30;64480;52.040;113.502;2024-03-08T11:35:57;-2.69;52.78
75838;SHT30;64480;52.040;113.502;2024-03-08T11:39:10;-2.79;52.77
75838;SHT30;64480;52.040;113.502;2024-03-08T11:42:19;-2.84;53.08
75838;SHT30;64480;52.040;113.502;2024-03-08T11:45:25;-2.91;53.16
75838;SHT30;64480;52.040;113.502;2024-03-08T11:48:33;-2.98;53.30
75838;SHT30;64480;52.040;113.502;2024-03-08T11:51:43;-3.03;53.67
75838;SHT30;64480;52.040;113.502;2024-03-08T11:54:53;-3.09;53.56
75838;SHT30;64480;52.040;113.502;2024-03-08T11:58:06;-3.19;54.18
75838;SHT30;64480;52.040;113.502;2024-03-08T12:01:14;-3.28;54.35
75838;SHT30;64480;52.040;113.502;2024-03-08T12:04:21;-3.34;54.83
75838;SHT30;64480;52.040;113.502;2024-03-08T12:07:31;-3.43;55.07
75838;SHT30;64480;52.040;113.502;2024-03-08T12:10:40;-3.46;55.28
75838;SHT30;64480;52.040;113.502;2024-03-08T12:13:46;-3.51;55.47
75838;SHT30;64480;52.040;113.502;2024-03-08T12:16:57;-3.55;55.68
75838;SHT30;64480;52.040;113.502;2024-03-08T12:20:22;-3.62;55.70
75838;SHT30;64480;52.040;113.502;2024-03-08T12:23:26;-3.71;55.94
75838;SHT30;64480;52.040;113.502;2024-03-08T12:26:29;-3.77;56.49
75838;SHT30;64480;52.040;113.502;2024-03-08T12:29:38;-3.84;56.43
75838;SHT30;64480;52.040;113.502;2024-03-08T12:33:03;-3.93;57.15
75838;SHT30;64480;52.040;113.502;2024-03-08T12:36:15;-3.99;57.21
75838;SHT30;64480;52.040;113.502;2024-03-08T12:39:25;-4.09;57.09
75838;SHT30;64480;52.040;113.502;2024-03-08T12:42:32;-4.15;56.87
75838;SHT30;64480;52.040;113.502;2024-03-08T12:45:56;-4.24;57.33
75838;SHT30;64480;52.040;113.502;2024-03-08T12:49:05;-4.30;57.51
75838;SHT30;64480;52.040;113.502;2024-03-08T12:52:27;-4.37;57.28
75838;SHT30;64480;52.040;113.502;2024-03-08T12:55:46;-4.43;57.55
75838;SHT30;64480;52.040;113.502;2024-03-08T12:58:55;-4.49;57.59
75838;SHT30;64480;52.040;113.502;2024-03-08T13:02:07;-4.59;57.91
75838;SHT30;64480;52.040;113.502;2024-03-08T13:05:26;-4.69;58.11
75838;SHT30;64480;52.040;113.502;2024-03-08T13:08:38;-4.79;58.25
75838;SHT30;64480;52.040;113.502;2024-03-08T13:11:48;-4.84;58.70
75838;SHT30;64480;52.040;113.502;2024-03-08T13:15:14;-4.94;58.61
75838;SHT30;64480;52.040;113.502;2024-03-08T13:18:24;-4.98;58.65
75838;SHT30;64480;52.040;113.502;2024-03-08T13:21:35;-5.02;58.94
75838;SHT30;64480;52.040;113.502;2024-03-08T13:24:45;-5.05;59.00
75838;SHT30;64480;52.040;113.502;2024-03-08T13:27:52;-5.11;59.04
75838;SHT30;64480;52.040;113.502;2024-03-08T13:31:04;-5.15;58.90
75838;SHT30;64480;52.040;113.502;2024-03-08T13:34:15;-5.22;59.02
75838;SHT30;64480;52.040;113.502;2024-03-08T13:37:27;-5.29;58.83
75838;SHT30;64480;52.040;113.502;2024-03-08T13:40:33;-5.32;59.06
75838;SHT30;64480;52.040;113.502;2024-03-08T13:43:51;-5.40;59.12
75838;SHT30;64480;52.040;113.502;2024-03-08T13:47:07;-5.43;59.26
75838;SHT30;64480;52.040;113.502;2024-03-08T13:50:15;-5.53;59.14
75838;SHT30;64480;52.040;113.502;2024-03-08T13:53:27;-5.62;59.09
75838;SHT30;64480;52.040;113.502;2024-03-08T13:56:34;-5.71;59.24
75838;SHT30;64480;52.040;113.502;2024-03-08T13:59:43;-5.80;59.46
75838;SHT30;64480;52.040;113.502;2024-03-08T14:02:48;-5.87;60.22
75838;SHT30;64480;52.040;113.502;2024-03-08T14:05:55;-5.91;60.39
75838;SHT30;64480;52.040;113.502;2024-03-08T14:08:59;-5.90;60.57
75838;SHT30;64480;52.040;113.502;2024-03-08T14:12:05;-5.97;60.25
75838;SHT30;64480;52.040;113.502;2024-03-08T14:15:12;-5.98;60.37
75838;SHT30;64480;52.040;113.502;2024-03-08T14:18:21;-6.01;60.26
75838;SHT30;64480;52.040;113.502;2024-03-08T14:21:32;-6.05;59.97
75838;SHT30;64480;52.040;113.502;2024-03-08T14:24:39;-6.08;60.40
75838;SHT30;64480;52.040;113.502;2024-03-08T14:27:44;-6.06;61.23
75838;SHT30;64480;52.040;113.502;2024-03-08T14:30:53;-6.18;60.71
75838;SHT30;64480;52.040;113.502;2024-03-08T14:34:08;-6.23;61.18
75838;SHT30;64480;52.040;113.502;2024-03-08T14:37:17;-6.32;61.59
75838;SHT30;64480;52.040;113.502;2024-03-08T14:40:34;-6.41;62.24
75838;SHT30;64480;52.040;113.502;2024-03-08T14:43:47;-6.48;62.74
75838;SHT30;64480;52.040;113.502;2024-03-08T14:46:58;-6.56;63.12
75838;SHT30;64480;52.040;113.502;2024-03-08T14:50:03;-6.58;63.30
75838;SHT30;64480;52.040;113.502;2024-03-08T14:53:13;-6.63;62.96
75838;SHT30;64480;52.040;113.502;2024-03-08T14:56:22;-6.73;63.14
75838;SHT30;64480;52.040;113.502;2024-03-08T14:59:31;-6.82;63.05
75838;SHT30;64480;52.040;113.502;2024-03-08T15:02:40;-6.88;63.07
75838;SHT30;64480;52.040;113.502;2024-03-08T15:05:46;-6.87;63.27
75838;SHT30;64480;52.040;113.502;2024-03-08T15:08:56;-6.94;62.89
75838;SHT30;64480;52.040;113.502;2024-03-08T15:12:04;-6.94;62.98
75838;SHT30;64480;52.040;113.502;2024-03-08T15:15:15;-6.95;62.84
75838;SHT30;64480;52.040;113.502;2024-03-08T15:18:26;-6.99;62.43
75838;SHT30;64480;52.040;113.502;2024-03-08T15:21:46;-7.08;62.44
75838;SHT30;64480;52.040;113.502;2024-03-08T15:24:55;-7.19;62.70
75838;SHT30;64480;52.040;113.502;2024-03-08T15:28:01;-7.22;62.99
75838;SHT30;64480;52.040;113.502;2024-03-08T15:31:12;-7.26;62.72
75838;SHT30;64480;52.040;113.502;2024-03-08T15:34:22;-7.36;62.46
75838;SHT30;64480;52.040;113.502;2024-03-08T15:37:28;-7.47;62.52
75838;SHT30;64480;52.040;113.502;2024-03-08T15:40:34;-7.51;62.62
75838;SHT30;64480;52.040;113.502;2024-03-08T15:43:41;-7.57;62.67
75838;SHT30;64480;52.040;113.502;2024-03-08T15:46:56;-7.73;61.54
75838;SHT30;64480;52.040;113.502;2024-03-08T15:50:02;-7.95;60.94
75838;SHT30;64480;52.040;113.502;2024-03-08T15:53:12;-8.03;61.63
75838;SHT30;64480;52.040;113.502;2024-03-08T15:56:17;-8.03;61.90
75838;SHT30;64480;52.040;113.502;2024-03-08T15:59:27;-8.02;62.81
75838;SHT30;64480;52.040;113.502;2024-03-08T16:02:39;-8.01;63.53
75838;SHT30;64480;52.040;113.502;2024-03-08T16:05:43;-8.01;63.68
75838;SHT30;64480;52.040;113.502;2024-03-08T16:08:48;-8.02;63.81
75838;SHT30;64480;52.040;113.502;2024-03-08T16:11:52;-8.02;63.67
75838;SHT30;64480;52.040;113.502;2024-03-08T16:14:58;-7.96;63.88
75838;SHT30;64480;52.040;113.502;2024-03-08T16:18:02;-7.99;63.76
75838;SHT30;64480;52.040;113.502;2024-03-08T16:21:08;-7.96;64.15
75838;SHT30;64480;52.040;113.502;2024-03-08T16:24:14;-7.88;64.05
75838;SHT30;64480;52.040;113.502;2024-03-08T16:27:18;-7.85;63.87
75838;SHT30;64480;52.040;113.502;2024-03-08T16:30:22;-7.85;63.66
75838;SHT30;64480;52.040;113.502;2024-03-08T16:33:27;-7.89;63.68
75838;SHT30;64480;52.040;113.502;2024-03-08T16:36:31;-7.98;64.25
75838;SHT30;64480;52.040;113.502;2024-03-08T16:39:36;-8.05;64.70
75838;SHT30;64480;52.040;113.502;2024-03-08T16:42:44;-8.10;64.97
75838;SHT30;64480;52.040;113.502;2024-03-08T16:45:49;-8.23;65.19
75838;SHT30;64480;52.040;113.502;2024-03-08T16:48:55;-8.26;65.79
75838;SHT30;64480;52.040;113.502;2024-03-08T16:52:00;-8.22;66.14
75838;SHT30;64480;52.040;113.502;2024-03-08T16:55:04;-8.22;65.93
75838;SHT30;64480;52.040;113.502;2024-03-08T16:58:17;-8.23;66.04
75838;SHT30;64480;52.040;113.502;2024-03-08T17:01:21;-8.20;66.14
75838;SHT30;64480;52.040;113.502;2024-03-08T17:04:25;-8.23;66.05
75838;SHT30;64480;52.040;113.502;2024-03-08T17:07:29;-8.20;65.32
75838;SHT30;64480;52.040;113.502;2024-03-08T17:10:35;-8.31;63.82
75838;SHT30;64480;52.040;113.502;2024-03-08T17:13:41;-8.37;63.40
75838;SHT30;64480;52.040;113.502;2024-03-08T17:16:46;-8.42;63.20
75838;SHT30;64480;52.040;113.502;2024-03-08T17:19:50;-8.40;63.24
75838;SHT30;64480;52.040;113.502;2024-03-08T17:22:56;-8.47;63.20
75838;SHT30;64480;52.040;113.502;2024-03-08T17:26:09;-8.51;63.65
75838;SHT30;64480;52.040;113.502;2024-03-08T17:29:16;-8.54;63.62
75838;SHT30;64480;52.040;113.502;2024-03-08T17:32:22;-8.67;63.79
75838;SHT30;64480;52.040;113.502;2024-03-08T17:35:28;-8.75;64.04
75838;SHT30;64480;52.040;113.502;2024-03-08T17:38:33;-8.78;64.18
75838;SHT30;64480;52.040;113.502;2024-03-08T17:41:38;-8.73;64.31
75838;SHT30;64480;52.040;113.502;2024-03-08T17:44:44;-8.81;64.24
75838;SHT30;64480;52.040;113.502;2024-03-08T17:47:48;-8.81;64.80
75838;SHT30;64480;52.040;113.502;2024-03-08T17:50:53;-8.78;64.76
75838;SHT30;64480;52.040;113.502;2024-03-08T17:53:57;-8.84;64.93
75838;SHT30;64480;52.040;113.502;2024-03-08T17:57:02;-8.91;64.60
75838;SHT30;64480;52.040;113.502;2024-03-08T18:00:08;-9.02;64.98
75838;SHT30;64480;52.040;113.502;2024-03-08T18:03:20;-9.05;65.24
75838;SHT30;64480;52.040;113.502;2024-03-08T18:06:35;-9.09;65.37
75838;SHT30;64480;52.040;113.502;2024-03-08T18:09:46;-9.10;65.69
75838;SHT30;64480;52.040;113.502;2024-03-08T18:12:52;-9.12;65.73
75838;SHT30;64480;52.040;113.502;2024-03-08T18:15:58;-9.13;65.85
75838;SHT30;64480;52.040;113.502;2024-03-08T18:19:02;-9.12;66.05
75838;SHT30;64480;52.040;113.502;2024-03-08T18:22:16;-9.12;66.26
75838;SHT30;64480;52.040;113.502;2024-03-08T18:25:21;-9.14;66.25
75838;SHT30;64480;52.040;113.502;2024-03-08T18:28:27;-9.26;65.87
75838;SHT30;64480;52.040;113.502;2024-03-08T18:31:31;-9.31;65.66
75838;SHT30;64480;52.040;113.502;2024-03-08T18:34:36;-9.30;65.98
75838;SHT30;64480;52.040;113.502;2024-03-08T18:37:46;-9.28;65.38
75838;SHT30;64480;52.040;113.502;2024-03-08T18:40:53;-9.50;64.70
75838;SHT30;64480;52.040;113.502;2024-03-08T18:43:57;-9.56;65.31
75838;SHT30;64480;52.040;113.502;2024-03-08T18:47:01;-9.58;65.33
75838;SHT30;64480;52.040;113.502;2024-03-08T18:50:05;-9.63;65.27
75838;SHT30;64480;52.040;113.502;2024-03-08T18:53:10;-9.65;65.53
75838;SHT30;64480;52.040;113.502;2024-03-08T18:56:16;-9.73;65.34
75838;SHT30;64480;52.040;113.502;2024-03-08T18:59:20;-9.79;65.20
75838;SHT30;64480;52.040;113.502;2024-03-08T19:02:24;-9.92;65.18
75838;SHT30;64480;52.040;113.502;2024-03-08T19:05:28;-9.88;65.67
75838;SHT30;64480;52.040;113.502;2024-03-08T19:08:32;-9.89;65.63